createdAt,value
2017-08-07T00:02:13.527Z,5.10
2017-08-07T00:04:43.686Z,6.07
2017-08-07T00:07:13.503Z,4.87
2017-08-07T00:09:43.452Z,6.28
2017-08-07T00:12:13.077Z,4.65
2017-08-07T00:14:44.299Z,5.55
2017-08-07T00:17:14.189Z,5.80
2017-08-07T00:19:43.749Z,6.57
2017-08-07T00:22:13.544Z,5.28
2017-08-07T00:24:43.178Z,5.57
2017-08-07T00:27:12.754Z,5.82
2017-08-07T00:29:42.308Z,4.05
2017-08-07T00:32:12.458Z,4.80
2017-08-07T00:34:42.319Z,8.65
2017-08-07T00:37:11.882Z,7.87
2017-08-07T00:39:41.544Z,6.20
2017-08-07T00:42:11.382Z,5.07
2017-08-07T00:44:41.299Z,4.90
2017-08-07T00:47:11.175Z,5.10
2017-08-07T00:49:40.695Z,5.10
2017-08-07T00:52:10.247Z,5.10
2017-08-07T00:54:40.054Z,7.87
2017-08-07T00:57:09.543Z,4.78
2017-08-07T00:59:39.035Z,3.83
2017-08-07T01:02:08.899Z,4.53
2017-08-07T01:04:38.518Z,6.50
2017-08-07T01:07:08.311Z,5.05
2017-08-07T01:09:37.859Z,4.80
2017-08-07T01:12:07.415Z,2.83
2017-08-07T01:14:37.235Z,5.28
2017-08-07T01:17:07.311Z,10.30
2017-08-07T01:19:37.130Z,3.80
2017-08-07T01:22:06.863Z,3.03
2017-08-07T01:24:37.004Z,7.15
2017-08-07T01:27:07.569Z,6.87
2017-08-07T01:29:37.973Z,5.80
2017-08-07T01:32:08.154Z,5.20
2017-08-07T01:34:38.478Z,6.70
2017-08-07T01:37:08.969Z,6.05
2017-08-07T01:39:39.302Z,6.93
2017-08-07T01:42:09.536Z,7.18
2017-08-07T01:44:39.555Z,3.10
2017-08-07T01:47:09.821Z,3.73
2017-08-07T01:49:40.696Z,2.83
2017-08-07T01:52:11.144Z,2.67
2017-08-07T01:54:41.517Z,2.60
2017-08-07T01:57:11.403Z,5.00
2017-08-07T01:59:41.918Z,3.05
2017-08-07T02:02:11.691Z,4.87
2017-08-07T02:04:42.641Z,4.18
2017-08-07T02:07:13.111Z,5.00
2017-08-07T02:09:42.909Z,4.13
2017-08-07T02:12:13.012Z,3.20
2017-08-07T02:14:42.784Z,4.78
2017-08-07T02:17:13.272Z,4.97
2017-08-07T02:19:44.272Z,4.85
2017-08-07T02:22:15.177Z,4.10
2017-08-07T02:24:44.851Z,3.90
2017-08-07T02:27:14.703Z,5.87
2017-08-07T02:29:44.207Z,2.33
2017-08-07T02:33:43.346Z,5.70
2017-08-07T02:36:12.856Z,5.57
2017-08-07T02:38:42.420Z,8.37
2017-08-07T02:41:12.460Z,4.25
2017-08-07T02:43:44.001Z,3.00
2017-08-07T02:46:13.878Z,2.90
2017-08-07T02:48:43.887Z,2.65
2017-08-07T02:51:13.946Z,3.83
2017-08-07T02:53:43.907Z,6.18
2017-08-07T02:56:14.008Z,11.23
2017-08-07T02:58:44.751Z,7.87
2017-08-07T03:01:15.015Z,5.95
2017-08-07T03:03:45.628Z,4.27
2017-08-07T03:06:15.455Z,4.43
2017-08-07T03:08:45.128Z,5.05
2017-08-07T03:11:14.827Z,5.30
2017-08-07T03:13:44.616Z,4.10
2017-08-07T03:16:14.997Z,5.50
2017-08-07T03:18:45.047Z,4.57
2017-08-07T03:21:15.025Z,5.20
2017-08-07T03:23:45.415Z,3.55
2017-08-07T03:26:15.280Z,5.60
2017-08-07T03:28:44.930Z,4.10
2017-08-07T03:31:15.299Z,7.30
2017-08-07T03:33:45.451Z,4.15
2017-08-07T03:36:15.258Z,5.22
2017-08-07T03:38:45.239Z,5.12
2017-08-07T03:43:13.018Z,4.43
2017-08-07T03:45:43.465Z,3.33
2017-08-07T03:48:13.711Z,5.60
2017-08-07T03:50:45.885Z,5.22
2017-08-07T03:53:15.679Z,3.08
2017-08-07T03:55:45.563Z,5.15
2017-08-07T03:58:16.710Z,4.20
2017-08-07T04:00:46.867Z,5.97
2017-08-07T04:03:17.430Z,4.68
2017-08-07T04:05:47.772Z,5.27
2017-08-07T04:08:17.632Z,6.03
2017-08-07T04:10:47.927Z,3.08
2017-08-07T04:13:17.735Z,5.33
2017-08-07T04:15:47.712Z,5.73
2017-08-07T04:18:17.260Z,7.82
2017-08-07T04:20:47.208Z,10.20
2017-08-07T04:23:17.506Z,8.63
2017-08-07T04:25:48.149Z,8.10
2017-08-07T04:28:17.851Z,4.28
2017-08-07T04:30:47.836Z,4.60
2017-08-07T04:33:17.451Z,5.62
2017-08-07T04:35:47.077Z,8.40
2017-08-07T04:38:16.614Z,5.37
2017-08-07T04:40:46.491Z,3.30
2017-08-07T04:43:16.333Z,5.05
2017-08-07T04:45:45.916Z,6.72
2017-08-07T04:48:16.609Z,4.78
2017-08-07T04:50:51.667Z,7.35
2017-08-07T04:53:21.600Z,6.32
2017-08-07T04:55:51.340Z,6.40
2017-08-07T04:58:20.943Z,5.37
2017-08-07T05:00:51.150Z,7.03
2017-08-07T05:03:21.415Z,7.43
2017-08-07T05:05:51.216Z,7.70
2017-08-07T05:08:20.976Z,3.93
2017-08-07T05:10:51.329Z,6.10
2017-08-07T05:13:20.919Z,7.90
2017-08-07T05:15:50.819Z,5.40
2017-08-07T05:18:20.607Z,5.18
2017-08-07T05:20:50.186Z,3.60
2017-08-07T05:23:20.891Z,4.18
2017-08-07T05:25:51.060Z,3.00
2017-08-07T05:28:20.939Z,6.47
2017-08-07T05:30:51.601Z,3.70
2017-08-07T05:33:25.387Z,3.20
2017-08-07T05:35:58.050Z,4.78
2017-08-07T05:38:33.849Z,3.90
2017-08-07T05:41:07.767Z,3.85
2017-08-07T05:43:38.381Z,3.53
2017-08-07T05:46:12.855Z,6.40
2017-08-07T05:48:44.764Z,5.72
2017-08-07T05:51:23.358Z,8.02
2017-08-07T05:53:54.283Z,6.28
2017-08-07T05:56:24.396Z,7.90
2017-08-07T05:58:54.004Z,7.30
2017-08-07T06:01:23.891Z,12.53
2017-08-07T06:03:53.853Z,8.00
2017-08-07T06:06:40.305Z,6.00
2017-08-07T06:09:13.101Z,5.45
2017-08-07T06:11:51.572Z,7.70
2017-08-07T06:17:35.506Z,6.90
2017-08-07T06:20:06.932Z,6.90
2017-08-07T06:22:36.990Z,5.15
2017-08-07T06:25:10.372Z,3.33
2017-08-07T06:27:40.075Z,5.20
2017-08-07T06:30:12.553Z,12.40
2017-08-07T06:32:45.109Z,11.43
2017-08-07T06:35:16.658Z,6.00
2017-08-07T06:37:46.660Z,4.20
2017-08-07T06:40:32.103Z,4.78
2017-08-07T06:43:01.854Z,5.68
2017-08-07T06:46:05.504Z,4.28
2017-08-07T06:48:38.200Z,5.90
2017-08-07T06:51:08.881Z,7.97
2017-08-07T06:53:38.759Z,3.10
2017-08-07T06:56:08.869Z,3.08
2017-08-07T06:58:40.904Z,5.50
2017-08-07T07:01:14.661Z,8.20
2017-08-07T07:03:49.256Z,3.65
2017-08-07T07:06:36.154Z,6.03
2017-08-07T07:09:11.772Z,3.22
2017-08-07T07:11:43.633Z,6.00
2017-08-07T07:14:15.734Z,4.60
2017-08-07T07:16:47.062Z,3.50
2017-08-07T07:19:34.867Z,4.07
2017-08-07T07:22:06.729Z,2.10
2017-08-07T07:24:38.420Z,6.00
2017-08-07T07:27:08.165Z,3.28
2017-08-07T07:29:38.963Z,5.47
2017-08-07T07:32:09.871Z,3.67
2017-08-07T07:34:42.392Z,5.35
2017-08-07T07:37:20.874Z,6.10
2017-08-07T07:39:51.912Z,3.10
2017-08-07T07:42:25.574Z,2.05
2017-08-07T07:44:58.194Z,3.05
2017-08-07T07:47:28.713Z,2.80
2017-08-07T07:50:00.890Z,3.15
2017-08-07T07:52:31.848Z,2.80
2017-08-07T07:55:03.690Z,3.03
2017-08-07T07:57:37.704Z,3.00
2017-08-07T08:03:30.169Z,3.65
2017-08-07T08:06:02.036Z,3.20
2017-08-07T08:08:35.192Z,7.90
2017-08-07T08:11:15.916Z,4.25
2017-08-07T08:16:38.698Z,3.10
2017-08-07T08:19:09.503Z,3.75
2017-08-07T08:21:39.653Z,2.95
2017-08-07T08:24:20.872Z,4.40
2017-08-07T08:27:00.790Z,3.30
2017-08-07T08:29:42.831Z,2.83
2017-08-07T08:34:01.319Z,6.05
2017-08-07T08:36:38.123Z,6.05
2017-08-07T08:39:10.203Z,2.20
2017-08-07T08:47:47.127Z,2.33
2017-08-07T08:50:17.248Z,4.25
2017-08-07T08:55:29.484Z,6.25
2017-08-07T08:58:00.545Z,2.97
2017-08-07T09:03:32.038Z,3.00
2017-08-07T09:06:05.113Z,2.25
2017-08-07T09:08:38.910Z,3.72
2017-08-07T09:11:09.057Z,3.05
2017-08-07T09:20:04.327Z,4.05
2017-08-07T09:22:36.717Z,3.70
2017-08-07T09:25:17.959Z,4.22
2017-08-07T09:27:48.117Z,3.70
2017-08-07T09:30:19.421Z,2.60
2017-08-07T09:32:49.678Z,2.70
2017-08-07T09:35:20.629Z,4.70
2017-08-07T09:37:50.912Z,2.40
2017-08-07T09:40:20.620Z,4.18
2017-08-07T09:42:51.701Z,3.92
2017-08-07T09:45:26.273Z,2.45
2017-08-07T09:47:57.241Z,2.73
2017-08-07T09:53:30.607Z,2.90
2017-08-07T09:56:01.271Z,5.18
2017-08-07T09:58:36.169Z,3.90
2017-08-07T10:04:13.053Z,2.30
2017-08-07T10:06:54.857Z,2.50
2017-08-07T10:09:27.634Z,3.50
2017-08-07T10:12:00.012Z,2.30
2017-08-07T10:14:30.053Z,3.00
2017-08-07T10:17:00.250Z,2.95
2017-08-07T10:19:33.836Z,2.20
2017-08-07T10:22:06.942Z,3.22
2017-08-07T10:24:40.426Z,4.60
2017-08-07T10:27:12.432Z,2.85
2017-08-07T10:29:45.660Z,2.00
2017-08-07T10:38:21.640Z,2.93
2017-08-07T10:40:58.699Z,5.25
2017-08-07T10:43:48.893Z,2.25
2017-08-07T10:46:22.731Z,3.33
2017-08-07T10:51:54.876Z,2.30
2017-08-07T10:54:26.900Z,2.70
2017-08-07T10:56:57.518Z,1.90
2017-08-07T10:59:29.905Z,2.90
2017-08-07T11:02:08.993Z,3.87
2017-08-07T11:04:48.511Z,3.08
2017-08-07T11:07:40.738Z,4.00
2017-08-07T11:14:13.904Z,1.70
2017-08-07T11:16:43.836Z,2.80
2017-08-07T11:21:56.695Z,4.12
2017-08-07T11:24:29.585Z,2.40
2017-08-07T11:27:07.186Z,2.60
2017-08-07T11:29:39.058Z,3.65
2017-08-07T11:32:10.487Z,2.97
2017-08-07T11:34:40.795Z,2.70
2017-08-07T11:37:12.565Z,2.47
2017-08-07T11:39:45.865Z,3.10
2017-08-07T11:42:16.403Z,3.05
2017-08-07T11:44:46.539Z,2.20
2017-08-07T11:50:33.932Z,3.12
2017-08-07T11:53:12.950Z,2.70
2017-08-07T11:58:49.661Z,3.90
2017-08-07T12:01:25.120Z,3.23
2017-08-07T12:03:57.075Z,2.50
2017-08-07T12:06:27.765Z,4.78
2017-08-07T12:09:01.652Z,2.40
2017-08-07T12:11:39.868Z,5.57
2017-08-07T12:14:09.980Z,3.50
2017-08-07T12:16:40.120Z,4.30
2017-08-07T12:19:12.423Z,3.00
2017-08-07T12:21:42.777Z,3.08
2017-08-07T12:24:37.448Z,3.08
2017-08-07T12:27:07.925Z,4.05
2017-08-07T12:29:38.618Z,3.00
2017-08-07T12:32:08.989Z,4.45
2017-08-07T12:34:40.251Z,4.50
2017-08-07T12:37:11.158Z,3.17
2017-08-07T12:39:42.705Z,2.90
2017-08-07T12:42:27.109Z,4.03
2017-08-07T12:44:57.439Z,3.00
2017-08-07T12:47:28.155Z,3.40
2017-08-07T12:49:59.033Z,3.47
2017-08-07T12:52:30.559Z,3.90
2017-08-07T12:55:10.229Z,3.40
2017-08-07T12:57:40.848Z,3.80
2017-08-07T13:00:16.848Z,4.10
2017-08-07T13:02:47.460Z,5.15
2017-08-07T13:05:17.463Z,3.20
2017-08-07T13:07:47.472Z,4.33
2017-08-07T13:10:20.236Z,4.60
2017-08-07T13:12:53.008Z,3.55
2017-08-07T13:15:33.915Z,3.78
2017-08-07T13:18:03.739Z,4.32
2017-08-07T13:20:36.195Z,4.05
2017-08-07T13:23:06.890Z,4.00
2017-08-07T13:25:43.009Z,3.60
2017-08-07T13:28:18.485Z,4.85
2017-08-07T13:30:49.590Z,6.50
2017-08-07T13:33:19.251Z,5.10
2017-08-07T13:35:49.484Z,4.47
2017-08-07T13:38:20.243Z,5.20
2017-08-07T13:40:51.299Z,6.57
2017-08-07T13:43:21.244Z,4.20
2017-08-07T13:45:53.113Z,6.25
2017-08-07T13:48:23.695Z,4.30
2017-08-07T13:50:54.913Z,4.43
2017-08-07T13:53:25.227Z,5.18
2017-08-07T13:55:54.823Z,4.87
2017-08-07T13:58:31.790Z,4.93
2017-08-07T14:01:01.887Z,4.17
2017-08-07T14:03:44.915Z,4.23
2017-08-07T14:06:36.597Z,4.40
2017-08-07T14:09:08.271Z,4.28
2017-08-07T14:11:39.998Z,4.53
2017-08-07T14:14:10.220Z,5.62
2017-08-07T14:16:39.881Z,5.12
2017-08-07T14:19:09.796Z,4.62
2017-08-07T14:21:53.087Z,4.60
2017-08-07T14:24:24.663Z,5.18
2017-08-07T14:26:54.324Z,4.32
2017-08-07T14:29:32.994Z,5.97
2017-08-07T14:32:04.122Z,5.53
2017-08-07T14:37:39.997Z,4.55
2017-08-07T14:40:12.355Z,4.60
2017-08-07T14:42:44.556Z,5.80
2017-08-07T14:46:50.786Z,4.30
2017-08-07T14:49:20.621Z,4.75
2017-08-07T14:51:51.020Z,4.70
2017-08-07T14:54:20.587Z,5.53
2017-08-07T14:56:50.277Z,5.18
2017-08-07T14:59:19.860Z,8.05
2017-08-07T15:01:49.479Z,5.20
2017-08-07T15:04:19.354Z,5.65
2017-08-07T15:06:49.042Z,5.80
2017-08-07T15:09:18.666Z,4.45
2017-08-07T15:11:48.466Z,4.82
2017-08-07T15:14:18.029Z,4.50
2017-08-07T15:16:47.586Z,7.00
2017-08-07T15:19:17.938Z,5.45
2017-08-07T15:21:47.525Z,4.90
2017-08-07T15:24:17.641Z,4.90
2017-08-07T15:26:47.540Z,5.65
2017-08-07T15:29:17.126Z,4.82
2017-08-07T15:31:46.763Z,4.57
2017-08-07T15:34:16.844Z,5.40
2017-08-07T15:36:48.864Z,4.87
2017-08-07T15:39:18.718Z,7.95
2017-08-07T15:41:48.539Z,5.07
2017-08-07T15:44:18.248Z,4.80
2017-08-07T15:46:48.724Z,4.80
2017-08-07T15:49:18.587Z,4.87
2017-08-07T15:51:48.231Z,5.30
2017-08-07T15:54:17.960Z,5.10
2017-08-07T15:56:48.206Z,4.87
2017-08-07T15:59:18.095Z,5.00
2017-08-07T16:01:47.645Z,5.80
2017-08-07T16:04:17.225Z,5.50
2017-08-07T16:06:51.844Z,5.70
2017-08-07T16:09:22.743Z,5.45
2017-08-07T16:11:52.492Z,7.10
2017-08-07T16:14:22.031Z,5.00
2017-08-07T16:16:52.461Z,5.93
2017-08-07T16:19:22.902Z,7.20
2017-08-07T16:21:52.619Z,4.97
2017-08-07T16:24:27.882Z,6.35
2017-08-07T16:26:58.054Z,5.70
2017-08-07T16:29:40.765Z,5.20
2017-08-07T16:32:17.037Z,5.30
2017-08-07T16:34:46.894Z,6.55
2017-08-07T16:37:16.662Z,5.30
2017-08-07T16:39:53.271Z,5.70
2017-08-07T16:42:22.870Z,5.05
2017-08-07T16:44:52.613Z,5.12
2017-08-07T16:47:37.333Z,5.60
2017-08-07T16:50:06.903Z,7.70
2017-08-07T16:52:36.948Z,5.13
2017-08-07T16:55:06.892Z,5.70
2017-08-07T16:57:36.445Z,5.30
2017-08-07T17:00:06.344Z,5.45
2017-08-07T17:02:35.979Z,5.40
2017-08-07T17:05:05.620Z,5.25
2017-08-07T17:07:35.605Z,4.83
2017-08-07T17:10:05.268Z,5.60
2017-08-07T17:12:34.846Z,5.90
2017-08-07T17:16:34.090Z,5.80
2017-08-07T17:19:04.032Z,4.82
2017-08-07T17:21:33.974Z,6.70
2017-08-07T17:24:03.636Z,5.97
2017-08-07T17:26:33.216Z,5.87
2017-08-07T17:29:03.083Z,5.05
2017-08-07T17:31:32.820Z,5.22
2017-08-07T17:34:03.012Z,5.70
2017-08-07T17:36:32.838Z,5.27
2017-08-07T17:39:02.472Z,4.90
2017-08-07T17:41:32.680Z,5.10
2017-08-07T17:44:02.357Z,5.15
2017-08-07T17:46:32.019Z,5.23
2017-08-07T17:49:01.568Z,5.12
2017-08-07T17:51:31.370Z,4.93
2017-08-07T17:54:00.985Z,5.00
2017-08-07T17:56:30.581Z,4.90
2017-08-07T17:59:00.287Z,7.00
2017-08-07T18:01:30.016Z,6.15
2017-08-07T18:03:59.839Z,6.40
2017-08-07T18:06:29.524Z,5.50
2017-08-07T18:08:59.092Z,5.65
2017-08-07T18:11:29.450Z,4.90
2017-08-07T18:13:59.402Z,5.30
2017-08-07T18:16:33.824Z,5.63
2017-08-07T18:19:04.363Z,5.65
2017-08-07T18:21:36.296Z,5.20
2017-08-07T18:24:06.931Z,6.00
2017-08-07T18:26:36.625Z,5.93
2017-08-07T18:29:06.266Z,6.05
2017-08-07T18:31:35.948Z,6.10
2017-08-07T18:34:05.797Z,6.37
2017-08-07T18:36:36.109Z,6.70
2017-08-07T18:39:06.344Z,5.90
2017-08-07T18:41:35.984Z,6.40
2017-08-07T18:44:06.037Z,6.97
2017-08-07T18:46:36.340Z,6.62
2017-08-07T18:49:06.110Z,7.20
2017-08-07T18:51:35.883Z,7.18
2017-08-07T18:54:05.646Z,7.20
2017-08-07T18:56:35.644Z,9.75
2017-08-07T18:59:05.341Z,6.20
2017-08-07T19:01:35.091Z,6.90
2017-08-07T19:04:05.304Z,6.80
2017-08-07T19:06:34.966Z,8.48
2017-08-07T19:09:05.201Z,6.37
2017-08-07T19:11:34.868Z,6.15
2017-08-07T19:14:04.537Z,5.97
2017-08-07T19:16:34.492Z,6.55
2017-08-07T19:19:04.302Z,6.78
2017-08-07T19:21:46.485Z,8.63
2017-08-07T19:24:16.141Z,7.68
2017-08-07T19:26:45.805Z,8.85
2017-08-07T19:29:15.818Z,9.27
2017-08-07T19:31:45.541Z,8.30
2017-08-07T19:34:15.219Z,9.75
2017-08-07T19:36:45.267Z,10.02
2017-08-07T19:39:15.531Z,13.70
2017-08-07T19:41:45.183Z,10.75
2017-08-07T19:44:15.135Z,9.75
2017-08-07T19:46:45.016Z,10.25
2017-08-07T19:49:14.678Z,10.07
2017-08-07T19:51:44.391Z,10.82
2017-08-07T19:54:14.118Z,11.82
2017-08-07T19:56:44.257Z,11.12
2017-08-07T19:59:15.328Z,9.60
2017-08-07T20:01:45.365Z,11.52
2017-08-07T20:04:15.148Z,11.90
2017-08-07T20:06:44.806Z,9.23
2017-08-07T20:09:14.709Z,15.70
2017-08-07T20:11:44.512Z,9.50
2017-08-07T20:14:14.146Z,11.60
2017-08-07T20:16:46.497Z,9.07
2017-08-07T20:19:17.149Z,11.82
2017-08-07T20:21:47.872Z,11.50
2017-08-07T20:24:18.061Z,10.73
2017-08-07T20:26:48.006Z,11.27
2017-08-07T20:29:18.364Z,10.60
2017-08-07T20:31:48.236Z,12.20
2017-08-07T20:34:18.015Z,14.20
2017-08-07T20:36:48.111Z,12.27
2017-08-07T20:39:17.774Z,13.13
2017-08-07T20:41:47.470Z,10.23
2017-08-07T20:44:17.144Z,9.83
2017-08-07T20:46:46.768Z,16.42
2017-08-07T20:49:16.778Z,13.77
2017-08-07T20:51:46.565Z,10.20
2017-08-07T20:54:16.521Z,11.15
2017-08-07T20:56:46.511Z,9.85
2017-08-07T20:59:17.173Z,10.50
2017-08-07T21:01:46.890Z,11.50
2017-08-07T21:04:16.520Z,9.40
2017-08-07T21:06:46.204Z,11.68
2017-08-07T21:09:16.189Z,15.98
2017-08-07T21:11:45.881Z,11.38
2017-08-07T21:14:21.631Z,10.00
2017-08-07T21:17:04.802Z,11.52
2017-08-07T21:19:34.819Z,8.23
2017-08-07T21:22:04.936Z,11.77
2017-08-07T21:24:34.826Z,10.50
2017-08-07T21:27:04.513Z,15.13
2017-08-07T21:29:34.307Z,15.70
2017-08-07T21:32:03.824Z,14.70
2017-08-07T21:34:33.670Z,11.75
2017-08-07T21:37:03.309Z,11.65
2017-08-07T21:39:33.723Z,9.90
2017-08-07T21:42:03.605Z,9.95
2017-08-07T21:44:33.559Z,9.23
2017-08-07T21:47:03.461Z,9.48
2017-08-07T21:49:33.235Z,9.52
2017-08-07T21:52:03.111Z,8.70
2017-08-07T21:54:32.935Z,8.73
2017-08-07T21:57:02.888Z,9.13
2017-08-07T21:59:32.420Z,8.43
2017-08-07T22:02:02.611Z,12.55
2017-08-07T22:04:32.252Z,8.03
2017-08-07T22:07:01.803Z,8.50
2017-08-07T22:09:35.937Z,9.57
2017-08-07T22:12:05.479Z,10.63
2017-08-07T22:14:36.776Z,8.60
2017-08-07T22:17:06.411Z,8.52
2017-08-07T22:19:35.950Z,11.80
2017-08-07T22:22:05.791Z,9.77
2017-08-07T22:24:35.792Z,9.90
2017-08-07T22:27:05.713Z,10.82
2017-08-07T22:29:36.270Z,12.00
2017-08-07T22:32:09.656Z,7.90
2017-08-07T22:34:39.508Z,11.20
2017-08-07T22:37:09.870Z,14.98
2017-08-07T22:39:39.417Z,10.75
2017-08-07T22:42:10.335Z,7.90
2017-08-07T22:44:39.866Z,9.27
2017-08-07T22:47:09.669Z,15.70
2017-08-07T22:49:44.707Z,10.65
2017-08-07T22:52:14.772Z,10.45
2017-08-07T22:54:45.090Z,7.40
2017-08-07T22:57:15.134Z,7.90
2017-08-07T22:59:44.789Z,7.40
2017-08-07T23:02:14.576Z,9.50
2017-08-07T23:04:44.155Z,8.52
2017-08-07T23:07:14.283Z,8.30
2017-08-07T23:09:44.443Z,8.30
2017-08-07T23:12:15.128Z,8.82
2017-08-07T23:14:44.929Z,7.72
2017-08-07T23:17:14.392Z,8.95
2017-08-07T23:19:43.907Z,9.95
2017-08-07T23:22:13.760Z,7.62
2017-08-07T23:24:44.445Z,7.10
2017-08-07T23:27:14.354Z,8.77
2017-08-07T23:29:43.898Z,7.85
2017-08-07T23:32:13.722Z,10.77
2017-08-07T23:34:44.218Z,16.70
2017-08-07T23:37:13.741Z,11.68
2017-08-07T23:39:43.266Z,9.13
2017-08-07T23:42:12.787Z,6.87
2017-08-07T23:44:42.286Z,6.53
2017-08-07T23:47:12.338Z,10.73
2017-08-07T23:49:42.193Z,9.32
2017-08-07T23:52:12.031Z,7.57
2017-08-07T23:54:42.219Z,6.77
2017-08-07T23:57:12.119Z,6.90
2017-08-07T23:59:41.962Z,9.07
